createdAt,value
2022-11-04T00:00:47.145Z,99687.69
2022-11-04T00:03:13.767Z,99683.56
2022-11-04T00:05:40.477Z,99676.63
2022-11-04T00:08:37.450Z,99677.19
2022-11-04T00:11:27.467Z,99673.22
2022-11-04T00:13:54.153Z,99671.13
2022-11-04T00:16:39.059Z,99665.69
2022-11-04T00:19:05.742Z,99653.50
2022-11-04T00:21:51.003Z,99654.47
2022-11-04T00:24:49.733Z,99663.69
2022-11-04T00:27:37.289Z,99654.94
2022-11-04T00:30:08.134Z,99661.16
2022-11-04T00:32:53.771Z,99663.81
2022-11-04T00:35:21.676Z,99677.06
2022-11-04T00:37:48.407Z,99678.06
2022-11-04T00:40:16.335Z,99672.94
2022-11-04T00:42:44.702Z,99676.38
2022-11-04T00:45:11.511Z,99682.19
2022-11-04T00:47:38.159Z,99685.34
2022-11-04T00:50:05.188Z,99699.13
2022-11-04T00:52:31.785Z,99701.13
2022-11-04T00:54:58.354Z,99696.09
2022-11-04T00:57:25.128Z,99707.25
2022-11-04T00:59:51.722Z,99716.25
2022-11-04T01:02:18.580Z,99713.00
2022-11-04T01:04:46.945Z,99707.69
2022-11-04T01:07:13.694Z,99695.69
2022-11-04T01:09:40.366Z,99698.09
2022-11-04T01:12:07.037Z,99713.06
2022-11-04T01:14:33.837Z,99720.63
2022-11-04T01:17:00.350Z,99716.72
2022-11-04T01:19:26.951Z,99716.63
2022-11-04T01:21:53.801Z,99709.56
2022-11-04T01:24:20.430Z,99718.66
2022-11-04T01:26:47.052Z,99727.81
2022-11-04T01:29:15.758Z,99728.31
2022-11-04T01:31:42.345Z,99731.22
2022-11-04T01:34:09.347Z,99722.91
2022-11-04T01:36:35.967Z,99725.88
2022-11-04T01:39:02.690Z,99720.75
2022-11-04T01:41:32.101Z,99726.22
2022-11-04T01:44:01.336Z,99723.44
2022-11-04T01:46:39.423Z,99719.75
2022-11-04T01:49:30.263Z,99717.28
2022-11-04T01:52:02.461Z,99728.66
2022-11-04T01:54:30.149Z,99726.78
2022-11-04T01:56:58.209Z,99733.75
2022-11-04T01:59:30.125Z,99728.91
2022-11-04T02:01:56.819Z,99732.25
2022-11-04T02:04:30.122Z,99734.44
2022-11-04T02:06:59.884Z,99731.94
2022-11-04T02:09:30.098Z,99747.72
2022-11-04T02:12:15.424Z,99741.53
2022-11-04T02:14:43.276Z,99745.53
2022-11-04T02:17:15.874Z,99744.50
2022-11-04T02:20:00.372Z,99744.63
2022-11-04T02:22:39.357Z,99738.16
2022-11-04T02:25:32.166Z,99745.19
2022-11-04T02:28:08.017Z,99751.16
2022-11-04T02:31:01.820Z,99755.94
2022-11-04T02:33:41.915Z,99753.56
2022-11-04T02:36:27.308Z,99762.56
2022-11-04T02:39:00.624Z,99753.44
2022-11-04T02:41:49.271Z,99751.47
2022-11-04T02:44:26.501Z,99753.13
2022-11-04T02:47:04.994Z,99750.03
2022-11-04T02:49:53.205Z,99746.13
2022-11-04T02:52:26.978Z,99754.56
2022-11-04T02:55:10.496Z,99757.31
2022-11-04T02:57:40.214Z,99756.28
2022-11-04T03:00:09.220Z,99763.81
2022-11-04T03:02:40.795Z,99778.88
2022-11-04T03:05:11.645Z,99796.59
2022-11-04T03:07:41.941Z,99783.47
2022-11-04T03:10:16.068Z,99782.09
2022-11-04T03:12:51.753Z,99787.19
2022-11-04T03:15:24.854Z,99797.69
2022-11-04T03:18:00.699Z,99792.91
2022-11-04T03:20:28.977Z,99792.13
2022-11-04T03:22:59.690Z,99808.03
2022-11-04T03:25:32.453Z,99809.69
2022-11-04T03:28:17.436Z,99800.84
2022-11-04T03:30:48.818Z,99811.91
2022-11-04T03:33:24.751Z,99795.28
2022-11-04T03:35:51.357Z,99801.75
2022-11-04T03:38:18.155Z,99810.31
2022-11-04T03:40:44.758Z,99816.25
2022-11-04T03:43:16.070Z,99817.34
2022-11-04T03:45:43.662Z,99796.97
2022-11-04T03:48:11.205Z,99798.56
2022-11-04T03:50:43.527Z,99811.97
2022-11-04T03:53:13.465Z,99804.97
2022-11-04T03:55:46.354Z,99799.13
2022-11-04T03:58:32.979Z,99794.31
2022-11-04T04:01:12.631Z,99794.31
2022-11-04T04:03:46.585Z,99794.88
2022-11-04T04:06:21.140Z,99794.34
2022-11-04T04:08:55.973Z,99794.63
2022-11-04T04:11:44.657Z,99796.00
2022-11-04T04:14:40.206Z,99807.78
2022-11-04T04:17:17.418Z,99804.56
2022-11-04T04:19:51.253Z,99801.09
2022-11-04T04:22:23.149Z,99818.03
2022-11-04T04:25:13.414Z,99805.13
2022-11-04T04:27:41.579Z,99810.50
2022-11-04T04:30:14.115Z,99797.66
2022-11-04T04:32:52.746Z,99795.06
2022-11-04T04:35:44.549Z,99789.75
2022-11-04T04:38:43.057Z,99789.25
2022-11-04T04:41:45.887Z,99790.91
2022-11-04T04:44:39.093Z,99791.44
2022-11-04T04:47:07.733Z,99787.75
2022-11-04T04:49:37.125Z,99792.03
2022-11-04T04:52:07.202Z,99790.19
2022-11-04T04:54:33.826Z,99789.09
2022-11-04T04:57:00.314Z,99779.66
2022-11-04T04:59:26.849Z,99777.50
2022-11-04T05:01:53.675Z,99783.94
2022-11-04T05:04:20.252Z,99783.94
2022-11-04T05:06:46.893Z,99780.72
2022-11-04T05:09:13.449Z,99787.75
2022-11-04T05:11:40.057Z,99776.50
2022-11-04T05:14:06.592Z,99774.63
2022-11-04T05:16:37.964Z,99773.84
2022-11-04T05:19:07.145Z,99774.59
2022-11-04T05:21:33.724Z,99771.56
2022-11-04T05:24:00.265Z,99758.88
2022-11-04T05:26:26.785Z,99756.97
2022-11-04T05:28:53.357Z,99756.38
2022-11-04T05:31:19.950Z,99750.72
2022-11-04T05:33:46.638Z,99746.72
2022-11-04T05:36:15.567Z,99756.97
2022-11-04T05:38:43.579Z,99755.91
2022-11-04T05:41:12.419Z,99752.97
2022-11-04T05:43:39.052Z,99740.63
2022-11-04T05:46:05.913Z,99740.38
2022-11-04T05:48:37.694Z,99737.25
2022-11-04T05:51:06.779Z,99744.25
2022-11-04T05:53:33.349Z,99748.50
2022-11-04T05:55:59.934Z,99745.78
2022-11-04T05:58:26.449Z,99750.13
2022-11-04T06:00:53.001Z,99758.22
2022-11-04T06:03:19.651Z,99763.09
2022-11-04T06:05:46.258Z,99764.16
2022-11-04T06:08:12.853Z,99760.94
2022-11-04T06:10:39.423Z,99768.94
2022-11-04T06:13:05.971Z,99763.31
2022-11-04T06:15:32.509Z,99764.44
2022-11-04T06:17:59.126Z,99766.91
2022-11-04T06:20:25.662Z,99775.25
2022-11-04T06:22:52.484Z,99777.41
2022-11-04T06:25:19.075Z,99790.25
2022-11-04T06:27:47.035Z,99798.56
2022-11-04T06:30:14.716Z,99811.41
2022-11-04T06:32:41.375Z,99817.31
2022-11-04T06:35:09.010Z,99812.78
2022-11-04T06:37:35.648Z,99808.19
2022-11-04T06:40:02.222Z,99803.91
2022-11-04T06:42:29.168Z,99807.94
2022-11-04T06:44:55.687Z,99802.84
2022-11-04T06:47:24.734Z,99808.47
2022-11-04T06:49:51.689Z,99800.69
2022-11-04T06:52:18.257Z,99808.19
2022-11-04T06:54:44.802Z,99801.75
2022-11-04T06:57:12.363Z,99803.34
2022-11-04T06:59:39.160Z,99796.94
2022-11-04T07:02:05.995Z,99797.19
2022-11-04T07:04:32.624Z,99799.06
2022-11-04T07:06:59.176Z,99794.78
2022-11-04T07:09:25.833Z,99797.44
2022-11-04T07:11:52.491Z,99798.50
2022-11-04T07:14:19.027Z,99808.13
2022-11-04T07:16:45.597Z,99805.94
2022-11-04T07:19:12.128Z,99810.44
2022-11-04T07:21:38.762Z,99820.25
2022-11-04T07:24:05.657Z,99824.53
2022-11-04T07:26:32.244Z,99824.28
2022-11-04T07:29:00.893Z,99821.34
2022-11-04T07:31:27.795Z,99829.84
2022-11-04T07:33:54.414Z,99825.19
2022-11-04T07:36:21.050Z,99830.22
2022-11-04T07:38:48.020Z,99834.44
2022-11-04T07:41:15.433Z,99832.31
2022-11-04T07:43:42.069Z,99837.19
2022-11-04T07:46:12.459Z,99827.50
2022-11-04T07:48:39.378Z,99820.75
2022-11-04T07:51:08.255Z,99818.84
2022-11-04T07:53:35.506Z,99818.38
2022-11-04T07:56:07.377Z,99809.22
2022-11-04T07:58:34.730Z,99811.44
2022-11-04T08:01:03.807Z,99811.38
2022-11-04T08:03:30.468Z,99813.97
2022-11-04T08:06:01.547Z,99816.53
2022-11-04T08:08:28.875Z,99812.72
2022-11-04T08:11:15.925Z,99816.41
2022-11-04T08:13:44.166Z,99812.00
2022-11-04T08:16:16.313Z,99807.50
2022-11-04T08:18:43.523Z,99806.34
2022-11-04T08:21:11.115Z,99809.03
2022-11-04T08:23:38.516Z,99807.59
2022-11-04T08:26:12.972Z,99802.44
2022-11-04T08:28:39.928Z,99789.69
2022-11-04T08:31:13.698Z,99791.53
2022-11-04T08:33:41.545Z,99794.34
2022-11-04T08:36:14.380Z,99779.16
2022-11-04T08:38:40.957Z,99791.88
2022-11-04T08:41:09.584Z,99785.03
2022-11-04T08:43:36.499Z,99784.09
2022-11-04T08:46:05.649Z,99784.56
2022-11-04T08:48:32.263Z,99784.13
2022-11-04T08:50:59.493Z,99788.50
2022-11-04T08:53:26.759Z,99784.94
2022-11-04T08:55:53.923Z,99794.81
2022-11-04T08:58:20.884Z,99798.31
2022-11-04T09:00:47.645Z,99797.41
2022-11-04T09:03:14.206Z,99802.59
2022-11-04T09:05:44.876Z,99802.63
2022-11-04T09:08:16.806Z,99794.41
2022-11-04T09:10:45.266Z,99802.75
2022-11-04T09:13:12.690Z,99813.03
2022-11-04T09:15:39.677Z,99800.84
2022-11-04T09:18:06.340Z,99812.53
2022-11-04T09:20:33.541Z,99816.75
2022-11-04T09:23:00.319Z,99824.53
2022-11-04T09:25:26.943Z,99820.19
2022-11-04T09:27:53.489Z,99823.38
2022-11-04T09:30:20.076Z,99822.78
2022-11-04T09:32:52.438Z,99814.25
2022-11-04T09:35:19.691Z,99817.84
2022-11-04T09:37:46.888Z,99809.50
2022-11-04T09:40:23.341Z,99822.91
2022-11-04T09:43:05.714Z,99815.59
2022-11-04T09:45:34.054Z,99813.81
2022-11-04T09:48:14.114Z,99829.69
2022-11-04T09:50:51.297Z,99838.38
2022-11-04T09:53:27.067Z,99844.25
2022-11-04T09:56:01.426Z,99844.16
2022-11-04T09:58:33.724Z,99857.78
2022-11-04T10:01:18.750Z,99854.75
2022-11-04T10:04:01.718Z,99865.34
2022-11-04T10:07:11.292Z,99866.53
2022-11-04T10:09:50.879Z,99871.06
2022-11-04T10:12:25.208Z,99870.97
2022-11-04T10:15:13.750Z,99863.44
2022-11-04T10:18:21.024Z,99862.03
2022-11-04T10:20:50.786Z,99854.59
2022-11-04T10:23:31.246Z,99856.34
2022-11-04T10:26:28.911Z,99847.59
2022-11-04T10:29:04.329Z,99847.59
2022-11-04T10:31:31.197Z,99832.59
2022-11-04T10:34:09.038Z,99835.94
2022-11-04T10:36:37.952Z,99834.13
2022-11-04T10:39:18.413Z,99837.56
2022-11-04T10:41:47.704Z,99835.31
2022-11-04T10:44:24.069Z,99841.38
2022-11-04T10:47:26.353Z,99842.38
2022-11-04T10:50:39.976Z,99829.94
2022-11-04T10:53:31.050Z,99820.16
2022-11-04T10:56:04.384Z,99816.97
2022-11-04T10:58:35.422Z,99806.16
2022-11-04T11:01:24.121Z,99813.97
2022-11-04T11:03:50.815Z,99804.47
2022-11-04T11:06:30.815Z,99800.59
2022-11-04T11:09:19.745Z,99806.88
2022-11-04T11:11:49.265Z,99803.50
2022-11-04T11:14:37.266Z,99795.91
2022-11-04T11:17:17.127Z,99802.78
2022-11-04T11:20:20.945Z,99801.25
2022-11-04T11:22:51.781Z,99801.78
2022-11-04T11:25:32.088Z,99804.94
2022-11-04T11:28:02.645Z,99809.78
2022-11-04T11:30:53.314Z,99810.84
2022-11-04T11:33:24.330Z,99803.06
2022-11-04T11:35:56.493Z,99805.81
2022-11-04T11:38:24.172Z,99811.84
2022-11-04T11:41:18.703Z,99806.53
2022-11-04T11:43:46.482Z,99805.88
2022-11-04T11:46:13.668Z,99802.84
2022-11-04T11:48:42.888Z,99805.06
2022-11-04T11:51:15.440Z,99799.75
2022-11-04T11:54:02.752Z,99796.88
2022-11-04T11:56:52.152Z,99804.44
2022-11-04T12:02:34.450Z,99798.22
2022-11-04T12:12:00.668Z,99783.31
2022-11-04T12:14:36.513Z,99781.75
2022-11-04T12:17:26.403Z,99775.63
2022-11-04T12:20:20.081Z,99774.44
2022-11-04T12:22:53.047Z,99776.56
2022-11-04T12:26:00.958Z,99772.44
2022-11-04T12:29:00.324Z,99770.66
2022-11-04T12:31:48.330Z,99774.78
2022-11-04T12:34:33.686Z,99780.34
2022-11-04T12:37:11.546Z,99778.28
2022-11-04T12:40:07.588Z,99781.75
2022-11-04T12:42:46.524Z,99780.03
2022-11-04T12:45:43.250Z,99778.28
2022-11-04T12:48:17.887Z,99787.91
2022-11-04T12:51:03.367Z,99786.88
2022-11-04T12:53:54.620Z,99796.03
2022-11-04T12:56:37.593Z,99797.41
2022-11-04T12:59:27.110Z,99800.31
2022-11-04T13:02:13.686Z,99803.03
2022-11-04T13:04:49.041Z,99799.53
2022-11-04T13:07:42.937Z,99805.59
2022-11-04T13:10:23.146Z,99809.53
2022-11-04T13:12:54.112Z,99804.47
2022-11-04T13:15:28.905Z,99811.34
2022-11-04T13:18:04.064Z,99816.75
2022-11-04T13:20:39.386Z,99817.66
2022-11-04T13:23:13.439Z,99815.88
2022-11-04T13:25:50.596Z,99817.19
2022-11-04T13:28:20.349Z,99814.78
2022-11-04T13:31:13.305Z,99823.38
2022-11-04T13:33:55.456Z,99821.47
2022-11-04T13:36:44.824Z,99828.47
2022-11-04T13:39:20.835Z,99835.88
2022-11-04T13:42:28.505Z,99841.97
2022-11-04T13:44:58.502Z,99843.47
2022-11-04T13:47:32.850Z,99847.13
2022-11-04T13:49:59.581Z,99848.56
2022-11-04T13:52:31.777Z,99845.47
2022-11-04T13:55:02.988Z,99852.78
2022-11-04T13:57:34.921Z,99847.97
2022-11-04T14:00:16.767Z,99851.16
2022-11-04T14:02:44.603Z,99858.84
2022-11-04T14:05:29.863Z,99862.97
2022-11-04T14:08:00.698Z,99867.25
2022-11-04T14:10:36.527Z,99863.94
2022-11-04T14:13:28.298Z,99866.25
2022-11-04T14:16:05.985Z,99867.84
2022-11-04T14:18:41.294Z,99868.94
2022-11-04T14:21:15.419Z,99877.13
2022-11-04T14:23:51.935Z,99875.09
2022-11-04T14:26:22.689Z,99879.00
2022-11-04T14:29:18.001Z,99886.59
2022-11-04T14:31:51.446Z,99888.84
2022-11-04T14:34:28.774Z,99886.31
2022-11-04T14:37:04.649Z,99882.75
2022-11-04T14:39:40.628Z,99889.94
2022-11-04T14:42:14.515Z,99888.84
2022-11-04T14:44:50.430Z,99892.06
2022-11-04T14:47:26.041Z,99901.88
2022-11-04T14:50:02.538Z,99903.63
2022-11-04T14:52:33.395Z,99903.75
2022-11-04T14:55:12.292Z,99908.69
2022-11-04T14:57:41.729Z,99904.72
2022-11-04T15:00:29.681Z,99914.13
2022-11-04T15:04:09.628Z,99915.16
2022-11-04T15:06:10.532Z,99922.22
2022-11-04T15:08:41.057Z,99928.09
2022-11-04T15:11:16.556Z,99921.94
2022-11-04T15:13:49.132Z,99939.41
2022-11-04T15:16:25.887Z,99937.31
2022-11-04T15:18:54.928Z,99944.06
2022-11-04T15:21:25.496Z,99943.03
2022-11-04T15:23:53.897Z,99939.59
2022-11-04T15:26:29.060Z,99941.53
2022-11-04T15:29:01.062Z,99945.06
2022-11-04T15:31:32.895Z,99941.88
2022-11-04T15:34:02.904Z,99951.31
2022-11-04T15:36:33.062Z,99947.00
2022-11-04T15:39:02.469Z,99943.53
2022-11-04T15:41:50.319Z,99944.91
2022-11-04T15:44:27.120Z,99947.69
2022-11-04T15:46:59.186Z,99953.66
2022-11-04T15:49:30.441Z,99958.19
2022-11-04T15:52:08.238Z,99957.94
2022-11-04T15:54:36.102Z,99959.31
2022-11-04T15:57:14.224Z,99964.94
2022-11-04T15:59:51.019Z,99963.03
2022-11-04T16:02:30.214Z,99967.81
2022-11-04T16:05:21.102Z,99967.88
2022-11-04T16:07:50.436Z,99970.59
2022-11-04T16:10:37.127Z,99971.66
2022-11-04T16:13:24.506Z,99982.13
2022-11-04T16:16:09.455Z,99979.44
2022-11-04T16:18:42.851Z,99989.91
2022-11-04T16:21:21.729Z,99990.16
2022-11-04T16:23:51.880Z,99989.91
2022-11-04T16:26:26.051Z,99991.00
2022-11-04T16:28:59.385Z,99996.94
2022-11-04T16:31:32.936Z,99991.66
2022-11-04T16:34:00.006Z,99995.97
2022-11-04T16:36:32.356Z,100000.75
2022-11-04T16:39:04.798Z,100005.56
2022-11-04T16:41:36.134Z,100005.56
2022-11-04T16:44:05.071Z,100014.16
2022-11-04T16:46:34.980Z,100012.50
2022-11-04T16:49:01.670Z,100008.75
2022-11-04T16:51:28.255Z,100014.63
2022-11-04T16:53:54.847Z,100020.53
2022-11-04T16:56:24.764Z,100023.78
2022-11-04T16:58:52.255Z,100027.84
2022-11-04T17:01:19.728Z,100026.53
2022-11-04T17:03:46.655Z,100026.28
2022-11-04T17:06:15.215Z,100030.84
2022-11-04T17:08:42.495Z,100031.13
2022-11-04T17:11:10.724Z,100031.97
2022-11-04T17:13:38.523Z,100041.16
2022-11-04T17:16:06.803Z,100046.53
2022-11-04T17:18:34.470Z,100044.91
2022-11-04T17:21:06.160Z,100044.91
2022-11-04T17:23:32.908Z,100050.84
2022-11-04T17:25:59.568Z,100057.56
2022-11-04T17:28:26.983Z,100062.16
2022-11-04T17:30:54.041Z,100061.91
2022-11-04T17:33:20.987Z,100069.22
2022-11-04T17:35:49.702Z,100071.91
2022-11-04T17:38:17.698Z,100077.59
2022-11-04T17:41:03.288Z,100081.66
2022-11-04T17:43:48.716Z,100090.88
2022-11-04T17:46:34.560Z,100091.97
2022-11-04T17:49:03.426Z,100104.88
2022-11-04T17:51:30.494Z,100109.72
2022-11-04T17:53:57.345Z,100107.03
2022-11-04T17:56:25.080Z,100107.56
2022-11-04T17:58:53.387Z,100112.94
2022-11-04T18:01:22.151Z,100114.25
2022-11-04T18:03:51.878Z,100121.22
2022-11-04T18:06:18.555Z,100120.69
2022-11-04T18:08:45.168Z,100123.41
2022-11-04T18:11:32.074Z,100126.38
2022-11-04T18:13:59.007Z,100130.16
2022-11-04T18:16:25.726Z,100128.53
2022-11-04T18:18:52.554Z,100130.16
2022-11-04T18:21:19.297Z,100126.94
2022-11-04T18:23:45.952Z,100130.19
2022-11-04T18:26:12.793Z,100131.53
2022-11-04T18:28:40.254Z,100123.22
2022-11-04T18:31:12.367Z,100129.69
2022-11-04T18:33:42.525Z,100135.03
2022-11-04T18:36:09.711Z,100133.97
2022-11-04T18:38:36.372Z,100136.63
2022-11-04T18:41:03.227Z,100142.28
2022-11-04T18:43:29.918Z,100153.31
2022-11-04T18:45:56.571Z,100152.75
2022-11-04T18:48:23.302Z,100159.97
2022-11-04T18:50:50.337Z,100164.53
2022-11-04T18:53:22.850Z,100166.69
2022-11-04T18:55:52.563Z,100168.56
2022-11-04T18:58:19.342Z,100169.34
2022-11-04T19:00:45.958Z,100178.75
2022-11-04T19:03:12.566Z,100186.56
2022-11-04T19:05:42.257Z,100183.84
2022-11-04T19:08:09.164Z,100182.78
2022-11-04T19:10:57.999Z,100184.38
2022-11-04T19:13:26.640Z,100198.88
2022-11-04T19:15:56.549Z,100195.63
2022-11-04T19:18:23.548Z,100192.13
2022-11-04T19:20:50.372Z,100196.69
2022-11-04T19:23:17.447Z,100195.09
2022-11-04T19:25:44.078Z,100198.88
2022-11-04T19:28:34.743Z,100207.19
2022-11-04T19:31:00.979Z,100200.75
2022-11-04T19:33:31.357Z,100207.50
2022-11-04T19:36:00.107Z,100212.56
2022-11-04T19:38:27.322Z,100215.25
2022-11-04T19:40:55.127Z,100217.16
2022-11-04T19:43:23.160Z,100221.69
2022-11-04T19:45:50.616Z,100226.25
2022-11-04T19:48:18.893Z,100226.25
2022-11-04T19:50:48.567Z,100226.81
2022-11-04T19:53:16.136Z,100234.88
2022-11-04T19:55:54.382Z,100244.81
2022-11-04T19:58:23.136Z,100245.13
2022-11-04T20:00:51.048Z,100255.03
2022-11-04T20:03:18.310Z,100252.09
2022-11-04T20:05:45.708Z,100252.88
2022-11-04T20:08:13.020Z,100254.78
2022-11-04T20:10:43.161Z,100263.59
2022-11-04T20:13:37.915Z,100262.00
2022-11-04T20:16:22.406Z,100276.00
2022-11-04T20:18:56.599Z,100276.00
2022-11-04T20:21:25.378Z,100282.97
2022-11-04T20:23:58.816Z,100283.50
2022-11-04T20:26:27.543Z,100284.88
2022-11-04T20:28:56.242Z,100284.31
2022-11-04T20:31:25.630Z,100285.94
2022-11-04T20:33:53.355Z,100289.69
2022-11-04T20:36:22.598Z,100298.28
2022-11-04T20:38:49.299Z,100299.34
2022-11-04T20:41:19.720Z,100304.75
2022-11-04T20:43:47.668Z,100306.06
2022-11-04T20:46:27.455Z,100311.16
2022-11-04T20:48:55.410Z,100314.38
2022-11-04T20:51:25.314Z,100318.97
2022-11-04T20:53:56.359Z,100320.81
2022-11-04T20:56:34.477Z,100325.66
2022-11-04T20:59:01.691Z,100328.34
2022-11-04T21:01:36.184Z,100331.56
2022-11-04T21:04:09.124Z,100330.47
2022-11-04T21:06:42.803Z,100332.38
2022-11-04T21:09:13.401Z,100330.47
2022-11-04T21:11:40.088Z,100340.16
2022-11-04T21:14:08.437Z,100337.22
2022-11-04T21:16:35.652Z,100340.16
2022-11-04T21:19:05.878Z,100347.13
2022-11-04T21:21:33.266Z,100352.53
2022-11-04T21:24:02.857Z,100349.28
2022-11-04T21:26:32.199Z,100349.28
2022-11-04T21:29:01.637Z,100354.66
2022-11-04T21:31:30.597Z,100356.81
2022-11-04T21:33:57.663Z,100368.13
2022-11-04T21:36:24.297Z,100364.91
2022-11-04T21:38:51.048Z,100368.16
2022-11-04T21:41:22.194Z,100369.19
2022-11-04T21:43:53.964Z,100371.91
2022-11-04T21:46:23.468Z,100375.13
2022-11-04T21:48:55.823Z,100377.81
2022-11-04T21:51:23.460Z,100378.88
2022-11-04T21:53:50.321Z,100379.44
2022-11-04T21:56:23.197Z,100384.53
2022-11-04T21:58:51.620Z,100385.31
2022-11-04T22:01:20.556Z,100391.22
2022-11-04T22:03:52.762Z,100388.03
2022-11-04T22:06:19.450Z,100403.59
2022-11-04T22:08:56.148Z,100399.56
2022-11-04T22:11:36.159Z,100393.13
2022-11-04T22:14:08.149Z,100407.63
2022-11-04T22:16:38.441Z,100402.25
2022-11-04T22:19:11.995Z,100400.91
2022-11-04T22:21:46.244Z,100400.09
2022-11-04T22:24:18.256Z,100408.97
2022-11-04T22:26:44.925Z,100407.63
2022-11-04T22:29:14.407Z,100404.16
2022-11-04T22:31:42.871Z,100406.53
2022-11-04T22:34:09.957Z,100406.28
2022-11-04T22:36:36.810Z,100408.97
2022-11-04T22:39:03.516Z,100403.06
2022-11-04T22:41:34.792Z,100403.06
2022-11-04T22:44:03.218Z,100407.91
2022-11-04T22:46:33.712Z,100417.53
2022-11-04T22:49:00.614Z,100412.97
2022-11-04T22:51:28.001Z,100413.28
2022-11-04T22:53:58.874Z,100409.78
2022-11-04T22:56:31.518Z,100424.03
2022-11-04T22:59:03.253Z,100431.53
2022-11-04T23:01:31.612Z,100425.63
2022-11-04T23:03:58.526Z,100425.63
2022-11-04T23:06:27.663Z,100424.00
2022-11-04T23:08:59.692Z,100429.94
2022-11-04T23:11:46.835Z,100425.09
2022-11-04T23:14:34.265Z,100430.16
2022-11-04T23:17:19.378Z,100437.69
2022-11-04T23:19:46.030Z,100443.91
2022-11-04T23:22:31.169Z,100438.53
2022-11-04T23:25:06.739Z,100444.41
2022-11-04T23:27:53.432Z,100440.66
2022-11-04T23:30:26.510Z,100452.47
2022-11-04T23:32:58.225Z,100449.78
2022-11-04T23:35:55.614Z,100451.41
2022-11-04T23:38:22.594Z,100450.06
2022-11-04T23:41:10.417Z,100445.75
2022-11-04T23:43:36.942Z,100450.81
2022-11-04T23:46:24.118Z,100452.16
2022-11-04T23:49:09.689Z,100450.25
2022-11-04T23:51:55.025Z,100459.38
2022-11-04T23:54:40.131Z,100457.72
2022-11-04T23:57:32.131Z,100460.66
